Time;durP1;ratioP1;P1;durP2;ratioP2;P2;SDS_P1;SDS_P2;PMS_P1;PMS_P2;Temp;Humidity;BMP_temperature;BMP_pressure;BME280_temperature;BME280_humidity;BME280_pressure;Samples;Min_cycle;Max_cycle;Signal;HPM_P1;HPM_P2
2023/04/02 00:01:22;;;;;;;7.05;2.40;;;;;;;;;;6089660;23;20613;-79
2023/04/02 00:03:58;;;;;;;5.15;2.55;;;;;;;;;;6116424;23;20014;-79
2023/04/02 00:06:29;;;;;;;5.72;2.45;;;;;;;;;;6115873;23;20025;-78
2023/04/02 00:08:57;;;;;;;5.38;2.38;;;;;;;;;;6116352;23;20022;-80
2023/04/02 00:11:34;;;;;;;4.40;2.50;;;;;;;;;;6090251;23;20026;-80
2023/04/02 00:14:03;;;;;;;7.80;3.50;;;;;;;;;;6114810;23;20025;-80
2023/04/02 00:16:28;;;;;;;7.43;3.35;;;;;;;;;;6089403;23;20093;-79
2023/04/02 00:18:57;;;;;;;5.75;3.20;;;;;;;;;;6116529;23;20036;-79
2023/04/02 00:21:28;;;;;;;5.55;2.65;;;;;;;;;;6113925;23;20017;-79
2023/04/02 00:23:55;;;;;;;5.30;2.88;;;;;;;;;;6090710;23;20146;-80
2023/04/02 00:26:31;;;;;;;7.45;3.20;;;;;;;;;;6113425;23;20009;-80
2023/04/02 00:28:59;;;;;;;5.25;2.65;;;;;;;;;;6116170;23;20439;-79
2023/04/02 00:31:24;;;;;;;4.45;2.20;;;;;;;;;;6089444;23;20022;-79
2023/04/02 00:33:51;;;;;;;5.82;2.67;;;;;;;;;;6090338;23;20020;-79
2023/04/02 00:36:19;;;;;;;5.75;2.65;;;;;;;;;;6090155;23;20484;-79
2023/04/02 00:38:45;;;;;;;6.47;2.40;;;;;;;;;;6114481;23;20033;-79
2023/04/02 00:41:15;;;;;;;5.03;2.40;;;;;;;;;;6089694;23;20013;-79
2023/04/02 00:43:43;;;;;;;5.18;2.40;;;;;;;;;;6094411;23;20490;-78
2023/04/02 00:46:16;;;;;;;5.25;2.50;;;;;;;;;;6119219;23;20443;-79
2023/04/02 00:49:03;;;;;;;6.25;2.20;;;;;;;;;;6143424;23;20569;-79
2023/04/02 00:51:37;;;;;;;3.78;2.17;;;;;;;;;;6118719;23;20455;-78
2023/04/02 00:54:05;;;;;;;5.72;2.40;;;;;;;;;;6119838;23;20035;-78
2023/04/02 00:56:35;;;;;;;4.53;2.45;;;;;;;;;;6119004;23;20085;-78
2023/04/02 00:59:01;;;;;;;6.28;2.67;;;;;;;;;;6095255;23;20435;-78
2023/04/02 01:01:35;;;;;;;5.25;2.65;;;;;;;;;;6118570;23;20013;-78
2023/04/02 01:04:04;;;;;;;7.68;2.83;;;;;;;;;;6145503;23;20009;-78
2023/04/02 01:06:36;;;;;;;6.53;2.65;;;;;;;;;;6144912;23;20024;-78
2023/04/02 01:09:32;;;;;;;5.43;2.95;;;;;;;;;;6094435;23;20021;-79
2023/04/02 01:12:28;;;;;;;4.40;2.37;;;;;;;;;;6143920;23;20017;-79
2023/04/02 01:14:59;;;;;;;5.35;2.40;;;;;;;;;;6144976;23;20261;-78
2023/04/02 01:17:34;;;;;;;5.50;2.80;;;;;;;;;;6144586;23;20048;-79
2023/04/02 01:20:21;;;;;;;5.30;2.53;;;;;;;;;;6145405;23;20044;-79
2023/04/02 01:23:05;;;;;;;;;;;;;;;;;;6094768;23;20024;-79
2023/04/02 01:25:44;;;;;;;6.05;2.03;;;;;;;;;;6146815;23;20377;-79
2023/04/02 01:28:21;;;;;;;7.60;2.33;;;;;;;;;;6120826;23;20087;-79
2023/04/02 01:30:50;;;;;;;4.72;2.30;;;;;;;;;;6120293;23;20700;-78
2023/04/02 01:33:16;;;;;;;3.70;2.15;;;;;;;;;;6145490;23;20486;-78
2023/04/02 01:35:45;;;;;;;5.70;2.60;;;;;;;;;;6120762;23;20009;-78
2023/04/02 01:38:24;;;;;;;5.32;2.30;;;;;;;;;;6096641;23;20013;-79
2023/04/02 01:40:53;;;;;;;4.53;1.95;;;;;;;;;;6147142;23;20455;-78
2023/04/02 01:43:45;;;;;;;5.55;2.40;;;;;;;;;;6121121;23;20029;-79
2023/04/02 01:46:28;;;;;;;4.30;2.30;;;;;;;;;;6145005;23;20100;-78
2023/04/02 01:48:55;;;;;;;3.33;1.75;;;;;;;;;;6121747;23;20667;-79
2023/04/02 01:51:33;;;;;;;3.75;1.95;;;;;;;;;;6120465;23;20088;-79
2023/04/02 01:54:03;;;;;;;5.35;2.25;;;;;;;;;;6121071;23;20316;-78
2023/04/02 01:56:29;;;;;;;4.85;2.28;;;;;;;;;;6120278;23;20387;-79
2023/04/02 01:58:58;;;;;;;4.68;2.17;;;;;;;;;;6121498;23;20006;-78
2023/04/02 02:01:27;;;;;;;5.45;2.42;;;;;;;;;;6120186;23;20021;-78
2023/04/02 02:03:53;;;;;;;4.70;2.10;;;;;;;;;;6120665;23;20018;-78
2023/04/02 02:06:18;;;;;;;3.90;2.00;;;;;;;;;;6096157;23;20439;-78
2023/04/02 02:09:21;;;;;;;3.95;2.03;;;;;;;;;;6120706;23;20734;-78
2023/04/02 02:11:47;;;;;;;5.05;2.38;;;;;;;;;;6119473;23;20021;-79
2023/04/02 02:14:24;;;;;;;4.47;2.10;;;;;;;;;;6120980;23;20399;-78
2023/04/02 02:16:53;;;;;;;4.57;2.00;;;;;;;;;;6120027;23;20478;-78
2023/04/02 02:19:55;;;;;;;4.18;2.33;;;;;;;;;;6120777;23;20014;-79
2023/04/02 02:22:29;;;;;;;4.07;1.95;;;;;;;;;;6119640;23;20021;-79
2023/04/02 02:24:57;;;;;;;4.45;1.98;;;;;;;;;;6096323;23;20014;-78
2023/04/02 02:27:22;;;;;;;3.25;1.77;;;;;;;;;;6120339;23;20048;-79
2023/04/02 02:30:15;;;;;;;3.97;1.70;;;;;;;;;;6147616;23;20025;-78
2023/04/02 02:33:25;;;;;;;5.70;1.77;;;;;;;;;;6104499;23;20018;-79
2023/04/02 02:36:14;;;;;;;3.88;1.60;;;;;;;;;;6114538;23;20748;-78
2023/04/02 02:38:46;;;;;;;3.67;1.55;;;;;;;;;;6120524;23;20781;-78
2023/04/02 02:41:23;;;;;;;3.72;1.63;;;;;;;;;;6119412;23;20367;-78
2023/04/02 02:44:01;;;;;;;3.50;1.80;;;;;;;;;;6146790;23;20471;-78
2023/04/02 02:46:28;;;;;;;3.13;1.50;;;;;;;;;;6145664;23;20025;-78
2023/04/02 02:48:54;;;;;;;3.93;1.60;;;;;;;;;;6096089;23;20454;-79
2023/04/02 02:51:26;;;;;;;4.72;1.95;;;;;;;;;;6119354;23;20025;-79
2023/04/02 02:53:54;;;;;;;4.55;1.50;;;;;;;;;;6120300;23;20100;-78
2023/04/02 02:56:21;;;;;;;5.32;1.58;;;;;;;;;;6119167;23;20096;-79
2023/04/02 02:58:47;;;;;;;2.70;1.45;;;;;;;;;;6119890;23;20473;-78
2023/04/02 03:01:13;;;;;;;3.03;1.35;;;;;;;;;;6146557;23;20017;-79
2023/04/02 03:03:39;;;;;;;3.67;1.55;;;;;;;;;;6120442;23;20013;-79
2023/04/02 03:06:09;;;;;;;4.22;1.45;;;;;;;;;;6095717;23;20041;-79
2023/04/02 03:08:42;;;;;;;4.25;1.65;;;;;;;;;;6120092;23;20024;-79
2023/04/02 03:11:25;;;;;;;3.25;1.13;;;;;;;;;;6145916;23;20009;-79
2023/04/02 03:13:53;;;;;;;3.08;1.00;;;;;;;;;;6146288;23;20071;-79
2023/04/02 03:16:34;;;;;;;3.15;1.45;;;;;;;;;;6094987;23;20746;-78
2023/04/02 03:19:28;;;;;;;3.17;1.20;;;;;;;;;;6096072;23;20071;-78
2023/04/02 03:22:01;;;;;;;3.38;1.17;;;;;;;;;;6119387;23;20040;-78
2023/04/02 03:24:42;;;;;;;4.18;1.55;;;;;;;;;;6108131;23;20018;-79
2023/04/02 03:27:07;;;;;;;2.33;1.20;;;;;;;;;;6094769;23;20009;-79
2023/04/02 03:29:35;;;;;;;3.60;1.15;;;;;;;;;;6147060;23;20458;-77
2023/04/02 03:32:06;;;;;;;2.03;0.90;;;;;;;;;;6120234;23;20507;-79
2023/04/02 03:34:37;;;;;;;3.10;1.23;;;;;;;;;;6120363;23;20136;-78
2023/04/02 03:37:19;;;;;;;2.20;1.10;;;;;;;;;;6146033;23;20765;-78
2023/04/02 03:39:50;;;;;;;1.83;0.90;;;;;;;;;;6145813;23;20455;-80
2023/04/02 03:42:27;;;;;;;2.83;1.00;;;;;;;;;;6145182;23;20083;-79
2023/04/02 03:45:20;;;;;;;3.70;1.33;;;;;;;;;;6119511;23;20021;-79
2023/04/02 03:47:56;;;;;;;2.53;1.20;;;;;;;;;;6091748;23;20017;-79
2023/04/02 03:50:33;;;;;;;3.40;1.10;;;;;;;;;;6119401;23;20024;-79
2023/04/02 03:53:00;;;;;;;3.05;1.17;;;;;;;;;;6095115;23;20009;-80
2023/04/02 03:55:29;;;;;;;4.78;1.35;;;;;;;;;;6095086;23;20390;-78
2023/04/02 03:58:03;;;;;;;2.97;1.20;;;;;;;;;;6095102;23;20024;-79
2023/04/02 04:00:36;;;;;;;2.35;1.10;;;;;;;;;;6119261;23;20070;-80
2023/04/02 04:03:14;;;;;;;3.25;1.55;;;;;;;;;;6120414;23;20024;-79
2023/04/02 04:06:26;;;;;;;3.22;1.20;;;;;;;;;;6118731;23;20553;-79
2023/04/02 04:09:15;;;;;;;3.78;1.38;;;;;;;;;;6066856;23;20021;-80
2023/04/02 04:11:47;;;;;;;4.85;1.70;;;;;;;;;;6094715;23;20048;-80
2023/04/02 04:14:16;;;;;;;3.05;1.23;;;;;;;;;;6145551;23;20077;-80
2023/04/02 04:16:47;;;;;;;3.85;1.50;;;;;;;;;;6145465;23;20014;-80
2023/04/02 04:19:24;;;;;;;6.18;1.75;;;;;;;;;;6145866;23;20033;-79
2023/04/02 04:21:52;;;;;;;4.70;1.58;;;;;;;;;;6094652;23;20095;-79
2023/04/02 04:24:23;;;;;;;3.00;1.40;;;;;;;;;;6120374;23;20024;-79
2023/04/02 04:27:02;;;;;;;3.70;1.45;;;;;;;;;;6094749;23;20846;-78
2023/04/02 04:29:36;;;;;;;2.85;1.42;;;;;;;;;;6145632;23;20064;-78
2023/04/02 04:32:26;;;;;;;4.05;1.40;;;;;;;;;;6145633;23;20013;-80
2023/04/02 04:34:55;;;;;;;3.42;1.13;;;;;;;;;;6119546;23;20024;-80
2023/04/02 04:37:28;;;;;;;3.20;1.50;;;;;;;;;;6119251;23;20329;-80
2023/04/02 04:39:59;;;;;;;3.42;1.40;;;;;;;;;;6119543;23;20018;-80
2023/04/02 04:42:29;;;;;;;3.85;1.58;;;;;;;;;;6118418;23;20104;-80
2023/04/02 04:44:59;;;;;;;4.13;1.50;;;;;;;;;;6145212;23;20391;-79
2023/04/02 04:47:32;;;;;;;1.60;0.75;;;;;;;;;;6094516;23;20547;-79
2023/04/02 04:50:03;;;;;;;4.30;1.55;;;;;;;;;;6118557;23;20031;-80
2023/04/02 04:52:33;;;;;;;3.10;1.27;;;;;;;;;;6118673;23;20053;-79
2023/04/02 04:54:59;;;;;;;3.35;1.40;;;;;;;;;;6118811;23;20024;-78
2023/04/02 04:57:35;;;;;;;2.75;1.20;;;;;;;;;;6118732;23;20357;-79
2023/04/02 05:00:16;;;;;;;2.60;1.02;;;;;;;;;;6119643;23;20017;-78
2023/04/02 05:02:46;;;;;;;2.65;1.20;;;;;;;;;;6119135;23;20080;-79
2023/04/02 05:05:18;;;;;;;5.57;1.55;;;;;;;;;;6118585;23;20024;-79
2023/04/02 05:07:58;;;;;;;3.92;1.20;;;;;;;;;;6095209;23;20132;-78
2023/04/02 05:10:29;;;;;;;4.40;1.20;;;;;;;;;;6119042;23;20395;-79
2023/04/02 05:13:04;;;;;;;2.92;1.10;;;;;;;;;;6119213;23;20024;-80
2023/04/02 05:15:34;;;;;;;4.18;1.10;;;;;;;;;;6094784;23;20032;-79
2023/04/02 05:18:20;;;;;;;2.50;1.10;;;;;;;;;;6119752;23;20041;-79
2023/04/02 05:20:55;;;;;;;4.32;1.48;;;;;;;;;;6094636;23;20024;-80
2023/04/02 05:23:28;;;;;;;3.08;1.33;;;;;;;;;;6145168;23;20019;-79
2023/04/02 05:26:00;;;;;;;3.50;1.35;;;;;;;;;;6132493;23;20017;-76
2023/04/02 05:28:32;;;;;;;3.03;1.05;;;;;;;;;;6118435;23;20041;-79
2023/04/02 05:31:03;;;;;;;6.55;1.58;;;;;;;;;;6145197;23;20048;-78
2023/04/02 05:33:30;;;;;;;3.67;1.65;;;;;;;;;;6119122;23;20320;-77
2023/04/02 05:36:02;;;;;;;3.10;1.45;;;;;;;;;;6145342;23;20557;-78
2023/04/02 05:38:32;;;;;;;3.63;1.40;;;;;;;;;;6118826;23;20026;-78
2023/04/02 05:41:10;;;;;;;4.28;1.58;;;;;;;;;;6094348;23;20097;-78
2023/04/02 05:43:37;;;;;;;5.22;1.40;;;;;;;;;;6118501;23;20403;-78
2023/04/02 05:46:13;;;;;;;6.10;1.60;;;;;;;;;;6145547;23;20482;-78
2023/04/02 05:48:42;;;;;;;3.13;1.40;;;;;;;;;;6118999;23;20360;-78
2023/04/02 05:51:13;;;;;;;4.68;1.80;;;;;;;;;;6094687;23;20474;-78
2023/04/02 05:53:40;;;;;;;3.40;1.40;;;;;;;;;;6118999;23;20029;-77
2023/04/02 05:56:16;;;;;;;6.43;1.60;;;;;;;;;;6118977;23;20499;-78
2023/04/02 05:59:40;;;;;;;3.90;1.50;;;;;;;;;;6145010;23;20324;-78
2023/04/02 06:02:20;;;;;;;3.20;1.60;;;;;;;;;;6030033;23;20026;-77
2023/04/02 06:04:51;;;;;;;5.40;1.60;;;;;;;;;;6054048;23;20027;-77
2023/04/02 06:07:23;;;;;;;4.25;1.40;;;;;;;;;;6054254;23;20019;-78
2023/04/02 06:10:02;;;;;;;2.50;1.30;;;;;;;;;;6006575;23;20071;-77
2023/04/02 06:12:36;;;;;;;3.17;1.40;;;;;;;;;;6056034;23;20026;-77
2023/04/02 06:15:02;;;;;;;4.28;1.20;;;;;;;;;;6032628;23;20476;-78
2023/04/02 06:17:28;;;;;;;2.85;1.38;;;;;;;;;;6031503;23;20018;-79
2023/04/02 06:19:55;;;;;;;4.57;1.70;;;;;;;;;;6008056;23;20014;-78
2023/04/02 06:22:22;;;;;;;3.10;1.07;;;;;;;;;;6031853;23;20389;-77
2023/04/02 06:24:52;;;;;;;6.50;1.60;;;;;;;;;;6032970;23;20251;-78
2023/04/02 06:27:19;;;;;;;2.97;1.10;;;;;;;;;;6007412;23;20152;-78
2023/04/02 06:29:45;;;;;;;6.07;1.40;;;;;;;;;;6033163;23;20026;-78
2023/04/02 06:32:11;;;;;;;2.83;1.13;;;;;;;;;;6049841;23;20017;-77
2023/04/02 06:34:41;;;;;;;3.90;1.00;;;;;;;;;;6121565;23;20050;-78
2023/04/02 06:37:20;;;;;;;3.63;1.13;;;;;;;;;;6095678;23;20017;-78
2023/04/02 06:39:45;;;;;;;2.85;1.00;;;;;;;;;;6121203;23;20017;-78
2023/04/02 06:42:24;;;;;;;3.08;1.02;;;;;;;;;;6094706;23;20036;-78
2023/04/02 06:44:49;;;;;;;3.15;0.82;;;;;;;;;;6096372;23;20072;-77
2023/04/02 06:47:18;;;;;;;3.42;1.45;;;;;;;;;;6119769;23;20048;-78
2023/04/02 06:49:52;;;;;;;1.75;0.60;;;;;;;;;;6146689;23;20459;-78
2023/04/02 06:52:25;;;;;;;1.70;0.90;;;;;;;;;;6118942;23;20017;-78
2023/04/02 06:54:51;;;;;;;2.78;1.05;;;;;;;;;;6146386;23;20021;-78
2023/04/02 06:57:16;;;;;;;4.28;1.15;;;;;;;;;;6145751;23;20355;-79
2023/04/02 06:59:42;;;;;;;3.05;0.90;;;;;;;;;;6121325;23;20046;-79
2023/04/02 07:02:27;;;;;;;3.00;0.98;;;;;;;;;;6120051;23;20029;-80
2023/04/02 07:05:00;;;;;;;2.58;1.00;;;;;;;;;;6146813;23;20088;-79
2023/04/02 07:07:25;;;;;;;3.33;0.70;;;;;;;;;;6119296;23;20021;-81
2023/04/02 07:09:50;;;;;;;2.17;0.85;;;;;;;;;;6120936;23;20395;-79
2023/04/02 07:12:21;;;;;;;2.90;0.80;;;;;;;;;;6145945;23;20021;-78
2023/04/02 07:14:47;;;;;;;3.20;1.00;;;;;;;;;;6120457;23;20013;-77
2023/04/02 07:17:16;;;;;;;2.40;0.93;;;;;;;;;;6145266;23;20115;-80
2023/04/02 07:19:44;;;;;;;2.95;0.70;;;;;;;;;;6146061;23;20033;-81
2023/04/02 07:22:10;;;;;;;;;;;;;;;;;;6146254;23;20470;-81
2023/04/02 07:24:35;;;;;;;2.35;0.65;;;;;;;;;;6121526;23;19912;-81
2023/04/02 07:27:00;;;;;;;2.03;0.60;;;;;;;;;;6120282;23;20009;-81
2023/04/02 07:29:26;;;;;;;5.68;1.08;;;;;;;;;;6095905;23;20392;-81
2023/04/02 07:31:52;;;;;;;2.63;1.00;;;;;;;;;;6145669;23;20021;-79
2023/04/02 07:34:18;;;;;;;1.90;0.70;;;;;;;;;;6120804;23;20021;-81
2023/04/02 07:36:43;;;;;;;2.65;1.00;;;;;;;;;;6145974;23;20014;-81
2023/04/02 07:39:09;;;;;;;2.13;0.80;;;;;;;;;;6119766;23;20105;-81
2023/04/02 07:41:59;;;;;;;1.75;0.60;;;;;;;;;;6096465;23;20013;-81
2023/04/02 07:44:24;;;;;;;1.52;0.63;;;;;;;;;;6119308;23;20056;-81
2023/04/02 07:46:50;;;;;;;2.83;0.93;;;;;;;;;;6094904;23;20040;-82
2023/04/02 07:49:15;;;;;;;2.20;0.70;;;;;;;;;;6120410;23;20014;-81
2023/04/02 07:51:42;;;;;;;1.83;0.80;;;;;;;;;;6118972;23;20021;-81
2023/04/02 07:54:09;;;;;;;3.33;0.95;;;;;;;;;;6120276;23;20131;-81
2023/04/02 07:56:35;;;;;;;4.67;1.00;;;;;;;;;;6121017;23;20018;-80
2023/04/02 07:59:01;;;;;;;4.72;0.82;;;;;;;;;;6145805;23;20016;-81
2023/04/02 08:01:28;;;;;;;2.75;0.88;;;;;;;;;;6119056;23;20803;-81
2023/04/02 08:03:54;;;;;;;1.02;0.60;;;;;;;;;;6120334;23;20356;-81
2023/04/02 08:06:21;;;;;;;1.85;0.63;;;;;;;;;;6119268;23;20601;-81
2023/04/02 08:08:46;;;;;;;2.05;0.60;;;;;;;;;;6119858;23;20029;-81
2023/04/02 08:11:12;;;;;;;4.18;1.10;;;;;;;;;;6119698;23;20097;-81
2023/04/02 08:13:37;;;;;;;4.30;0.82;;;;;;;;;;6119432;23;20014;-81
2023/04/02 08:16:04;;;;;;;1.85;0.77;;;;;;;;;;6120113;23;20440;-81
2023/04/02 08:18:30;;;;;;;3.33;1.15;;;;;;;;;;6145956;23;20024;-83
2023/04/02 08:20:56;;;;;;;2.65;0.77;;;;;;;;;;6119139;23;20391;-81
2023/04/02 08:23:22;;;;;;;1.60;0.65;;;;;;;;;;6119047;23;20323;-81
2023/04/02 08:25:48;;;;;;;2.45;0.90;;;;;;;;;;6119537;23;20453;-80
2023/04/02 08:28:16;;;;;;;2.08;0.73;;;;;;;;;;6119528;23;20014;-81
2023/04/02 08:30:41;;;;;;;4.68;1.70;;;;;;;;;;6094553;23;20017;-85
2023/04/02 08:33:07;;;;;;;2.80;0.80;;;;;;;;;;6119835;23;20321;-81
2023/04/02 08:35:32;;;;;;;3.65;0.70;;;;;;;;;;6145920;23;20040;-82
2023/04/02 08:37:58;;;;;;;2.20;0.77;;;;;;;;;;6095317;23;20021;-83
2023/04/02 08:40:38;;;;;;;2.45;0.70;;;;;;;;;;6145367;23;20025;-83
2023/04/02 08:43:21;;;;;;;3.30;1.05;;;;;;;;;;6095064;23;20455;-83
2023/04/02 08:46:05;;;;;;;2.90;0.85;;;;;;;;;;6110676;23;20335;-82
2023/04/02 08:48:34;;;;;;;2.10;0.80;;;;;;;;;;6120129;23;20056;-83
2023/04/02 08:51:01;;;;;;;2.72;0.60;;;;;;;;;;6118334;23;20044;-83
2023/04/02 08:53:30;;;;;;;2.38;0.60;;;;;;;;;;6119059;23;20760;-81
2023/04/02 08:56:07;;;;;;;2.90;0.80;;;;;;;;;;6118623;23;20023;-77
2023/04/02 08:58:41;;;;;;;3.17;0.83;;;;;;;;;;6120226;23;20013;-77
2023/04/02 09:01:13;;;;;;;5.22;1.25;;;;;;;;;;6145045;23;20037;-77
2023/04/02 09:03:41;;;;;;;1.58;0.80;;;;;;;;;;6094556;23;20036;-78
2023/04/02 09:06:11;;;;;;;2.03;0.90;;;;;;;;;;6117607;23;20017;-80
2023/04/02 09:08:36;;;;;;;1.90;0.80;;;;;;;;;;6096496;23;20025;-78
2023/04/02 09:11:06;;;;;;;2.55;0.70;;;;;;;;;;6145322;23;20439;-77
2023/04/02 09:13:33;;;;;;;2.92;0.90;;;;;;;;;;6119774;23;20695;-77
2023/04/02 09:16:09;;;;;;;;;;;;;;;;;;6119050;23;20021;-76
2023/04/02 09:18:35;;;;;;;2.30;1.08;;;;;;;;;;6145351;23;20282;-76
2023/04/02 09:21:19;;;;;;;5.20;1.00;;;;;;;;;;6117592;23;20076;-77
2023/04/02 09:23:45;;;;;;;3.08;0.93;;;;;;;;;;6144854;23;20022;-77
2023/04/02 09:26:31;;;;;;;3.65;0.90;;;;;;;;;;6117681;23;20028;-78
2023/04/02 09:29:18;;;;;;;3.92;0.90;;;;;;;;;;6144078;23;21114;-77
2023/04/02 09:31:45;;;;;;;;;;;;;;;;;;6118661;23;20742;-76
2023/04/02 09:34:34;;;;;;;1.95;0.63;;;;;;;;;;6143238;23;20250;-78
2023/04/02 09:37:13;;;;;;;3.97;0.90;;;;;;;;;;6127844;23;20025;-78
2023/04/02 09:39:39;;;;;;;3.63;1.08;;;;;;;;;;6143894;23;20692;-77
2023/04/02 09:42:07;;;;;;;2.08;0.73;;;;;;;;;;6115794;23;20021;-78
2023/04/02 09:44:33;;;;;;;2.60;0.90;;;;;;;;;;6094431;23;20021;-77
2023/04/02 09:47:04;;;;;;;3.38;0.90;;;;;;;;;;6145565;23;20027;-77
2023/04/02 09:49:38;;;;;;;3.47;1.00;;;;;;;;;;6094914;23;20025;-77
2023/04/02 09:52:28;;;;;;;3.03;1.25;;;;;;;;;;6095697;23;20009;-75
2023/04/02 09:55:15;;;;;;;3.13;0.82;;;;;;;;;;6120194;23;20014;-76
2023/04/02 09:57:41;;;;;;;1.77;0.60;;;;;;;;;;6119005;23;20017;-76
2023/04/02 10:00:20;;;;;;;2.10;0.63;;;;;;;;;;6096036;23;20021;-78
2023/04/02 10:02:46;;;;;;;2.28;0.60;;;;;;;;;;6119805;23;20447;-77
2023/04/02 10:05:20;;;;;;;2.83;0.68;;;;;;;;;;6119287;23;20020;-78
2023/04/02 10:07:48;;;;;;;2.08;0.82;;;;;;;;;;6119879;23;20025;-77
2023/04/02 10:10:21;;;;;;;2.90;0.68;;;;;;;;;;6120892;23;20029;-77
2023/04/02 10:13:21;;;;;;;2.70;0.60;;;;;;;;;;6095926;23;20009;-77
2023/04/02 10:15:53;;;;;;;5.03;0.85;;;;;;;;;;6106040;23;20098;-81
2023/04/02 10:18:26;;;;;;;3.20;1.02;;;;;;;;;;6120758;23;20339;-81
2023/04/02 10:20:52;;;;;;;3.58;1.10;;;;;;;;;;6145994;23;20056;-81
2023/04/02 10:23:18;;;;;;;2.42;0.70;;;;;;;;;;6120953;23;20056;-82
2023/04/02 10:26:10;;;;;;;1.88;0.60;;;;;;;;;;6146228;23;20092;-82
2023/04/02 10:28:53;;;;;;;3.95;0.70;;;;;;;;;;6146342;23;20020;-82
2023/04/02 10:31:26;;;;;;;1.83;0.60;;;;;;;;;;6144943;23;20025;-82
2023/04/02 10:34:01;;;;;;;2.28;0.70;;;;;;;;;;6120418;23;20017;-82
2023/04/02 10:36:35;;;;;;;1.90;0.60;;;;;;;;;;6120352;23;20018;-80
2023/04/02 10:39:15;;;;;;;2.50;0.70;;;;;;;;;;6120889;23;20466;-81
2023/04/02 10:41:48;;;;;;;2.60;0.70;;;;;;;;;;6120075;23;20013;-79
2023/04/02 10:44:38;;;;;;;3.75;0.75;;;;;;;;;;6118544;23;20022;-80
2023/04/02 10:47:34;;;;;;;2.13;0.65;;;;;;;;;;6089784;23;20533;-81
2023/04/02 10:50:19;;;;;;;3.65;0.98;;;;;;;;;;6091423;23;20494;-81
2023/04/02 10:52:50;;;;;;;2.88;0.63;;;;;;;;;;6116833;23;20336;-81
2023/04/02 10:55:19;;;;;;;3.15;0.80;;;;;;;;;;6067047;23;20082;-79
2023/04/02 10:57:45;;;;;;;2.90;0.60;;;;;;;;;;6090533;23;20057;-79
2023/04/02 11:00:11;;;;;;;3.92;0.73;;;;;;;;;;6117957;23;20021;-80
2023/04/02 11:02:42;;;;;;;2.60;0.70;;;;;;;;;;6116457;23;20014;-80
2023/04/02 11:05:42;;;;;;;1.85;0.50;;;;;;;;;;6115854;23;20018;-78
2023/04/02 11:08:35;;;;;;;3.22;0.70;;;;;;;;;;6091109;23;20038;-77
2023/04/02 11:11:09;;;;;;;3.75;0.98;;;;;;;;;;6090106;23;20351;-77
2023/04/02 11:14:00;;;;;;;3.10;0.55;;;;;;;;;;6091580;23;20025;-82
2023/04/02 11:16:26;;;;;;;3.97;0.70;;;;;;;;;;6090170;23;20038;-81
2023/04/02 11:19:13;;;;;;;2.08;0.70;;;;;;;;;;6116653;23;20090;-82
2023/04/02 11:21:46;;;;;;;2.92;0.70;;;;;;;;;;6116434;23;20053;-83
2023/04/02 11:24:32;;;;;;;1.92;0.77;;;;;;;;;;6116921;23;20041;-81
2023/04/02 11:27:07;;;;;;;1.67;0.57;;;;;;;;;;6115532;23;20021;-80
2023/04/02 11:29:35;;;;;;;2.53;0.55;;;;;;;;;;6117310;23;20089;-78
2023/04/02 11:32:20;;;;;;;2.10;0.65;;;;;;;;;;6090341;23;20511;-79
2023/04/02 11:34:48;;;;;;;3.92;0.82;;;;;;;;;;6090922;23;20017;-79
2023/04/02 11:37:42;;;;;;;1.92;0.60;;;;;;;;;;6115497;23;20033;-78
2023/04/02 11:40:10;;;;;;;2.83;0.90;;;;;;;;;;6078712;23;20049;-78
2023/04/02 11:42:40;;;;;;;3.38;0.95;;;;;;;;;;6124027;23;20032;-78
2023/04/02 11:45:25;;;;;;;2.40;0.75;;;;;;;;;;6120221;23;20022;-78
2023/04/02 11:48:16;;;;;;;3.28;0.88;;;;;;;;;;6145507;23;20753;-79
2023/04/02 11:50:43;;;;;;;2.58;0.80;;;;;;;;;;6105632;23;20052;-79
2023/04/02 11:53:11;;;;;;;6.25;0.98;;;;;;;;;;6119809;23;20015;-79
2023/04/02 11:55:40;;;;;;;2.72;0.75;;;;;;;;;;6120167;23;20013;-79
2023/04/02 11:58:06;;;;;;;3.30;0.95;;;;;;;;;;6145914;23;20017;-79
2023/04/02 12:00:49;;;;;;;1.23;0.57;;;;;;;;;;6144886;23;20591;-79
2023/04/02 12:03:28;;;;;;;4.05;0.80;;;;;;;;;;6145535;23;20096;-78
2023/04/02 12:06:02;;;;;;;1.33;0.50;;;;;;;;;;6144532;23;20371;-78
2023/04/02 12:08:33;;;;;;;2.47;0.80;;;;;;;;;;6118944;23;20029;-79
2023/04/02 12:11:00;;;;;;;3.38;0.80;;;;;;;;;;6145703;23;20017;-79
2023/04/02 12:13:48;;;;;;;1.60;0.60;;;;;;;;;;6095619;23;20018;-79
2023/04/02 12:16:15;;;;;;;2.35;0.75;;;;;;;;;;6119844;23;20020;-79
2023/04/02 12:18:42;;;;;;;2.87;0.73;;;;;;;;;;6119035;23;20037;-79
2023/04/02 12:21:14;;;;;;;4.63;1.17;;;;;;;;;;6118843;23;20447;-78
2023/04/02 12:23:46;;;;;;;3.85;0.75;;;;;;;;;;6119469;23;20507;-78
2023/04/02 12:26:36;;;;;;;2.80;0.88;;;;;;;;;;6119325;23;20348;-80
2023/04/02 12:29:15;;;;;;;4.18;1.00;;;;;;;;;;6120921;23;20490;-79
2023/04/02 12:31:45;;;;;;;2.45;0.90;;;;;;;;;;6144949;23;20017;-81
2023/04/02 12:34:15;;;;;;;2.88;0.88;;;;;;;;;;6145964;23;20084;-81
2023/04/02 12:36:54;;;;;;;3.50;1.10;;;;;;;;;;6094466;23;20462;-82
2023/04/02 12:39:20;;;;;;;3.03;0.80;;;;;;;;;;6119892;23;20021;-82
2023/04/02 12:41:46;;;;;;;2.55;0.80;;;;;;;;;;6094797;23;20518;-82
2023/04/02 12:44:16;;;;;;;1.70;0.60;;;;;;;;;;6118480;23;20022;-81
2023/04/02 12:46:42;;;;;;;4.50;0.80;;;;;;;;;;6115532;23;20072;-81
2023/04/02 12:49:31;;;;;;;1.95;0.65;;;;;;;;;;6062578;23;20105;-81
2023/04/02 12:51:57;;;;;;;3.65;0.70;;;;;;;;;;6089628;23;20049;-82
2023/04/02 12:54:23;;;;;;;3.25;0.70;;;;;;;;;;6090817;23;20460;-81
2023/04/02 12:56:49;;;;;;;2.25;0.75;;;;;;;;;;6089742;23;20022;-81
2023/04/02 12:59:38;;;;;;;3.65;0.80;;;;;;;;;;6090298;23;20089;-81
2023/04/02 13:02:31;;;;;;;2.75;0.70;;;;;;;;;;6095599;23;20022;-80
2023/04/02 13:05:00;;;;;;;3.08;0.65;;;;;;;;;;6089849;23;20022;-83
2023/04/02 13:07:29;;;;;;;3.17;0.70;;;;;;;;;;6089170;23;20029;-80
2023/04/02 13:09:56;;;;;;;1.85;0.70;;;;;;;;;;6090765;23;20040;-82
2023/04/02 13:12:36;;;;;;;3.70;0.68;;;;;;;;;;6065050;23;20026;-81
2023/04/02 13:15:06;;;;;;;2.50;0.60;;;;;;;;;;6116890;23;20053;-81
2023/04/02 13:17:39;;;;;;;4.78;0.70;;;;;;;;;;6089043;23;20018;-81
2023/04/02 13:20:26;;;;;;;2.30;0.60;;;;;;;;;;6090594;23;20017;-81
2023/04/02 13:22:52;;;;;;;2.85;0.80;;;;;;;;;;6115653;23;20049;-82
2023/04/02 13:25:17;;;;;;;2.40;0.57;;;;;;;;;;6065978;23;20013;-81
2023/04/02 13:27:43;;;;;;;2.40;0.63;;;;;;;;;;6065843;23;20010;-81
2023/04/02 13:30:09;;;;;;;3.50;0.80;;;;;;;;;;6090651;23;20029;-81
2023/04/02 13:32:35;;;;;;;2.17;0.60;;;;;;;;;;6115440;23;20041;-81
2023/04/02 13:35:00;;;;;;;3.40;0.70;;;;;;;;;;6116081;23;20038;-81
2023/04/02 13:37:26;;;;;;;2.10;0.50;;;;;;;;;;6065509;23;20022;-82
2023/04/02 13:39:51;;;;;;;4.50;0.82;;;;;;;;;;6116392;23;20396;-82
2023/04/02 13:42:16;;;;;;;2.85;0.60;;;;;;;;;;6092876;23;20018;-82
2023/04/02 13:44:42;;;;;;;2.08;0.50;;;;;;;;;;6145517;23;20005;-81
2023/04/02 13:47:12;;;;;;;3.13;0.65;;;;;;;;;;6119958;23;20036;-82
2023/04/02 13:49:38;;;;;;;2.45;0.60;;;;;;;;;;6119063;23;20443;-82
2023/04/02 13:52:04;;;;;;;2.67;0.60;;;;;;;;;;6119351;23;20017;-82
2023/04/02 13:54:50;;;;;;;3.75;0.80;;;;;;;;;;6145095;23;20020;-82
2023/04/02 13:57:16;;;;;;;2.20;0.50;;;;;;;;;;6118113;23;20021;-82
2023/04/02 13:59:41;;;;;;;2.35;0.70;;;;;;;;;;6119432;23;20069;-82
2023/04/02 14:02:15;;;;;;;2.33;0.60;;;;;;;;;;6145676;23;20013;-82
2023/04/02 14:04:44;;;;;;;4.68;0.82;;;;;;;;;;6145756;23;20440;-82
2023/04/02 14:07:27;;;;;;;2.72;0.75;;;;;;;;;;6118633;23;20084;-82
2023/04/02 14:10:28;;;;;;;2.78;0.50;;;;;;;;;;6146157;23;20460;-82
2023/04/02 14:13:35;;;;;;;2.35;0.65;;;;;;;;;;6098352;23;20474;-82
2023/04/02 14:16:16;;;;;;;3.08;0.77;;;;;;;;;;6070405;23;20017;-82
2023/04/02 14:18:53;;;;;;;2.10;0.57;;;;;;;;;;6118653;23;20017;-82
2023/04/02 14:21:35;;;;;;;2.42;0.43;;;;;;;;;;6144061;23;20017;-82
2023/04/02 14:24:00;;;;;;;2.58;0.50;;;;;;;;;;6145363;23;20017;-80
2023/04/02 14:27:10;;;;;;;1.33;0.40;;;;;;;;;;6117884;23;20596;-80
2023/04/02 14:29:58;;;;;;;2.50;0.40;;;;;;;;;;6144218;23;20022;-80
2023/04/02 14:32:25;;;;;;;3.08;0.70;;;;;;;;;;6118818;23;20037;-82
2023/04/02 14:34:51;;;;;;;;;;;;;;;;;;6121891;23;20452;-81
2023/04/02 14:37:22;;;;;;;2.87;0.70;;;;;;;;;;6146295;23;19923;-81
2023/04/02 14:40:06;;;;;;;2.05;0.45;;;;;;;;;;6146702;23;20245;-82
2023/04/02 14:43:00;;;;;;;4.20;0.60;;;;;;;;;;6145488;23;20049;-81
2023/04/02 14:46:01;;;;;;;1.40;0.50;;;;;;;;;;6135346;23;20494;-82
2023/04/02 14:48:57;;;;;;;5.47;0.50;;;;;;;;;;6120578;23;20633;-81
2023/04/02 14:51:36;;;;;;;2.40;0.60;;;;;;;;;;6125249;23;20030;-81
2023/04/02 14:54:03;;;;;;;2.97;0.50;;;;;;;;;;6120655;23;20756;-80
2023/04/02 14:56:32;;;;;;;0.95;0.45;;;;;;;;;;6120372;23;20049;-81
2023/04/02 14:59:13;;;;;;;2.92;0.98;;;;;;;;;;6119485;23;20347;-80
2023/04/02 15:01:42;;;;;;;3.97;0.98;;;;;;;;;;6145278;23;20013;-80
2023/04/02 15:04:16;;;;;;;1.77;0.60;;;;;;;;;;6097057;23;20356;-80
2023/04/02 15:06:48;;;;;;;3.90;0.75;;;;;;;;;;6120156;23;20037;-81
2023/04/02 15:09:39;;;;;;;2.70;0.40;;;;;;;;;;6106482;23;20092;-82
2023/04/02 15:12:35;;;;;;;1.92;0.75;;;;;;;;;;6122684;23;20010;-80
2023/04/02 15:15:07;;;;;;;3.00;0.70;;;;;;;;;;6089715;23;20475;-81
2023/04/02 15:17:33;;;;;;;1.83;0.57;;;;;;;;;;6144400;23;20458;-80
2023/04/02 15:20:12;;;;;;;2.67;0.70;;;;;;;;;;6119448;23;20021;-81
2023/04/02 15:22:54;;;;;;;2.90;0.80;;;;;;;;;;6095390;23;20017;-80
2023/04/02 15:25:32;;;;;;;2.05;0.52;;;;;;;;;;6144851;23;20507;-80